createdAt,value
2023-04-01T00:00:53.570Z,78.60
2023-04-01T00:03:22.558Z,78.70
2023-04-01T00:05:54.212Z,78.80
2023-04-01T00:08:23.335Z,78.90
2023-04-01T00:10:51.547Z,78.80
2023-04-01T00:13:19.945Z,79.00
2023-04-01T00:15:48.251Z,79.40
2023-04-01T00:18:17.034Z,79.20
2023-04-01T00:20:48.740Z,79.20
2023-04-01T00:23:17.417Z,79.00
2023-04-01T00:25:49.517Z,79.30
2023-04-01T00:28:18.938Z,79.70
2023-04-01T00:30:47.669Z,79.70
2023-04-01T00:33:16.537Z,80.10
2023-04-01T00:35:44.792Z,80.30
2023-04-01T00:38:15.702Z,80.40
2023-04-01T00:40:47.065Z,80.40
2023-04-01T00:43:23.322Z,80.70
2023-04-01T00:45:51.584Z,80.90
2023-04-01T00:48:22.340Z,80.50
2023-04-01T00:50:56.226Z,80.40
2023-04-01T00:53:29.603Z,80.30
2023-04-01T00:56:01.736Z,80.60
2023-04-01T00:58:33.420Z,80.70
2023-04-01T01:01:02.347Z,81.50
2023-04-01T01:03:30.536Z,81.30
2023-04-01T01:06:04.608Z,81.20
2023-04-01T01:08:52.817Z,81.40
2023-04-01T01:11:23.959Z,81.50
2023-04-01T01:14:02.755Z,81.60
2023-04-01T01:16:32.482Z,81.30
2023-04-01T01:19:09.670Z,81.50
2023-04-01T01:21:57.592Z,81.30
2023-04-01T01:24:33.084Z,81.30
2023-04-01T01:27:07.593Z,81.60
2023-04-01T01:29:54.288Z,81.90
2023-04-01T01:32:41.411Z,81.90
2023-04-01T01:35:21.951Z,82.40
2023-04-01T01:37:52.848Z,82.50
2023-04-01T01:40:22.604Z,82.60
2023-04-01T01:42:53.369Z,82.60
2023-04-01T01:45:23.389Z,82.70
2023-04-01T01:47:52.975Z,82.80
2023-04-01T01:50:22.126Z,82.90
2023-04-01T01:52:51.238Z,83.00
2023-04-01T01:55:26.241Z,82.60
2023-04-01T01:57:57.677Z,82.90
2023-04-01T02:00:27.751Z,83.00
2023-04-01T02:02:56.525Z,83.20
2023-04-01T02:05:26.030Z,83.40
2023-04-01T02:08:04.335Z,83.40
2023-04-01T02:10:35.950Z,83.20
2023-04-01T02:13:07.712Z,83.30
2023-04-01T02:15:37.462Z,83.20
2023-04-01T02:18:06.385Z,83.40
2023-04-01T02:20:35.293Z,83.40
2023-04-01T02:23:03.709Z,83.40
2023-04-01T02:25:35.306Z,83.40
2023-04-01T02:28:05.454Z,83.70
2023-04-01T02:30:35.127Z,83.20
2023-04-01T02:33:04.369Z,83.60
2023-04-01T02:35:34.397Z,83.50
2023-04-01T02:38:03.305Z,83.40
2023-04-01T02:40:31.467Z,83.70
2023-04-01T02:42:59.665Z,83.60
2023-04-01T02:45:27.863Z,83.40
2023-04-01T02:47:56.461Z,82.60
2023-04-01T02:50:24.617Z,83.50
2023-04-01T02:52:52.794Z,83.50
2023-04-01T02:55:23.100Z,84.00
2023-04-01T02:57:51.587Z,84.00
2023-04-01T03:00:19.725Z,84.30
2023-04-01T03:02:50.657Z,83.80
2023-04-01T03:05:18.853Z,84.20
2023-04-01T03:07:47.384Z,84.30
2023-04-01T03:10:15.795Z,83.40
2023-04-01T03:12:44.183Z,83.80
2023-04-01T03:15:14.167Z,84.00
2023-04-01T03:17:43.657Z,83.70
2023-04-01T03:20:12.864Z,84.20
2023-04-01T03:22:43.967Z,84.00
2023-04-01T03:25:12.443Z,83.90
2023-04-01T03:27:40.619Z,83.70
2023-04-01T03:30:11.065Z,84.10
2023-04-01T03:32:48.869Z,83.60
2023-04-01T03:35:17.157Z,84.00
2023-04-01T03:37:47.416Z,84.50
2023-04-01T03:40:15.609Z,84.80
2023-04-01T03:42:44.515Z,84.60
2023-04-01T03:45:15.891Z,84.00
2023-04-01T03:47:44.105Z,84.10
2023-04-01T03:50:12.677Z,85.00
2023-04-01T03:52:41.072Z,84.90
2023-04-01T03:55:09.552Z,85.30
2023-04-01T03:57:40.039Z,85.40
2023-04-01T04:00:17.561Z,85.50
2023-04-01T04:02:49.617Z,85.50
2023-04-01T04:05:22.837Z,85.90
2023-04-01T04:07:51.650Z,85.90
2023-04-01T04:10:24.344Z,86.00
2023-04-01T04:12:53.138Z,86.40
2023-04-01T04:15:23.684Z,86.50
2023-04-01T04:17:52.048Z,86.50
2023-04-01T04:20:20.280Z,86.80
2023-04-01T04:22:48.430Z,86.60
2023-04-01T04:25:16.794Z,86.80
2023-04-01T04:27:45.415Z,86.90
2023-04-01T04:30:17.636Z,86.70
2023-04-01T04:32:46.514Z,86.70
2023-04-01T04:35:15.121Z,86.70
2023-04-01T04:37:43.610Z,86.40
2023-04-01T04:40:12.208Z,86.10
2023-04-01T04:42:41.022Z,86.20
2023-04-01T04:45:14.110Z,86.10
2023-04-01T04:47:49.696Z,86.10
2023-04-01T04:50:18.590Z,85.50
2023-04-01T04:52:47.596Z,85.50
2023-04-01T04:55:16.771Z,85.60
2023-04-01T04:57:48.603Z,85.50
2023-04-01T05:00:17.655Z,85.80
2023-04-01T05:02:57.026Z,85.40
2023-04-01T05:05:25.011Z,85.80
2023-04-01T05:07:56.097Z,86.20
2023-04-01T05:10:24.629Z,86.20
2023-04-01T05:12:52.587Z,86.20
2023-04-01T05:15:23.723Z,85.90
2023-04-01T05:17:52.184Z,86.30
2023-04-01T05:20:20.419Z,86.30
2023-04-01T05:22:48.651Z,86.50
2023-04-01T05:25:17.064Z,86.60
2023-04-01T05:27:45.522Z,86.70
2023-04-01T05:30:14.570Z,86.90
2023-04-01T05:32:55.827Z,86.50
2023-04-01T05:35:24.772Z,86.70
2023-04-01T05:37:53.675Z,86.90
2023-04-01T05:40:23.026Z,87.10
2023-04-01T05:42:51.295Z,87.60
2023-04-01T05:45:19.696Z,87.40
2023-04-01T05:48:06.745Z,87.50
2023-04-01T05:50:41.646Z,87.70
2023-04-01T05:53:11.194Z,88.20
2023-04-01T05:55:42.596Z,88.90
2023-04-01T05:58:10.939Z,88.50
2023-04-01T06:00:43.627Z,88.50
2023-04-01T06:03:14.049Z,88.40
2023-04-01T06:05:43.358Z,88.10
2023-04-01T06:08:19.012Z,87.20
2023-04-01T06:11:15.063Z,87.70
2023-04-01T06:13:52.524Z,87.30
2023-04-01T06:16:26.901Z,87.60
2023-04-01T06:19:10.209Z,87.00
2023-04-01T06:21:53.979Z,86.50
2023-04-01T06:24:28.687Z,86.10
2023-04-01T06:26:56.863Z,85.80
2023-04-01T06:29:37.137Z,85.90
2023-04-01T06:32:11.519Z,85.70
2023-04-01T06:34:42.780Z,85.10
2023-04-01T06:37:29.883Z,84.50
2023-04-01T06:39:57.998Z,83.30
2023-04-01T06:42:41.172Z,82.10
2023-04-01T06:45:28.429Z,80.90
2023-04-01T06:48:28.459Z,80.40
2023-04-01T06:51:15.106Z,79.90
2023-04-01T06:54:15.102Z,79.80
2023-04-01T06:57:22.252Z,78.70
2023-04-01T06:59:50.634Z,77.90
2023-04-01T07:02:26.014Z,77.00
2023-04-01T07:04:56.576Z,75.60
2023-04-01T07:07:57.327Z,76.10
2023-04-01T07:10:40.236Z,75.30
2023-04-01T07:13:47.150Z,74.80
2023-04-01T07:16:25.087Z,73.90
2023-04-01T07:18:59.738Z,72.90
2023-04-01T07:21:38.538Z,71.40
2023-04-01T07:24:18.813Z,68.40
2023-04-01T07:26:57.215Z,65.90
2023-04-01T07:29:29.017Z,63.10
2023-04-01T07:32:08.931Z,62.30
2023-04-01T07:34:55.533Z,59.90
2023-04-01T07:37:24.862Z,59.40
2023-04-01T07:39:58.731Z,57.70
2023-04-01T07:42:35.345Z,57.60
2023-04-01T07:45:30.777Z,56.80
2023-04-01T07:48:38.032Z,58.10
2023-04-01T07:51:13.481Z,57.80
2023-04-01T07:53:53.492Z,57.50
2023-04-01T07:56:22.474Z,57.40
2023-04-01T07:58:50.697Z,58.10
2023-04-01T08:01:47.340Z,58.40
2023-04-01T08:04:27.545Z,57.20
2023-04-01T08:07:04.803Z,57.40
2023-04-01T08:09:37.517Z,57.10
2023-04-01T08:12:30.515Z,56.70
2023-04-01T08:15:42.857Z,55.90
2023-04-01T08:18:22.353Z,56.60
2023-04-01T08:20:59.393Z,55.60
2023-04-01T08:23:47.883Z,53.70
2023-04-01T08:26:19.832Z,47.70
2023-04-01T08:28:52.657Z,48.40
2023-04-01T08:31:31.237Z,48.70
2023-04-01T08:33:59.584Z,45.70
2023-04-01T08:36:38.850Z,46.40
2023-04-01T08:39:29.445Z,46.40
2023-04-01T08:42:03.693Z,45.50
2023-04-01T08:45:09.019Z,44.00
2023-04-01T08:47:56.851Z,45.30
2023-04-01T08:50:37.954Z,44.30
2023-04-01T08:53:32.186Z,46.00
2023-04-01T08:56:18.917Z,44.10
2023-04-01T08:58:59.123Z,42.20
2023-04-01T09:01:34.086Z,46.10
2023-04-01T09:04:21.409Z,44.40
2023-04-01T09:07:08.524Z,44.30
2023-04-01T09:09:41.792Z,45.80
2023-04-01T09:12:28.678Z,46.00
2023-04-01T09:14:59.831Z,47.20
2023-04-01T09:17:53.378Z,45.70
2023-04-01T09:20:40.428Z,44.90
2023-04-01T09:23:27.070Z,43.90
2023-04-01T09:25:58.249Z,44.00
2023-04-01T09:28:43.675Z,44.40
2023-04-01T09:31:30.651Z,44.10
2023-04-01T09:34:34.685Z,43.70
2023-04-01T09:37:17.717Z,43.20
2023-04-01T09:39:46.231Z,41.60
2023-04-01T09:42:31.967Z,42.60
2023-04-01T09:45:34.580Z,43.40
2023-04-01T09:48:21.836Z,42.20
2023-04-01T09:50:57.722Z,41.50
2023-04-01T09:53:25.864Z,41.60
2023-04-01T09:56:14.792Z,42.00
2023-04-01T09:58:51.920Z,41.00
2023-04-01T10:01:55.386Z,36.70
2023-04-01T10:04:42.845Z,38.50
2023-04-01T10:07:16.861Z,34.70
2023-04-01T10:10:11.999Z,33.40
2023-04-01T10:12:43.211Z,34.70
2023-04-01T10:15:23.152Z,36.40
2023-04-01T10:18:09.195Z,36.60
2023-04-01T10:20:52.482Z,39.80
2023-04-01T10:23:23.605Z,39.20
2023-04-01T10:26:10.174Z,39.20
2023-04-01T10:28:50.630Z,38.60
2023-04-01T10:31:55.282Z,39.70
2023-04-01T10:34:35.693Z,38.60
2023-04-01T10:37:22.607Z,38.80
2023-04-01T10:39:53.892Z,39.10
2023-04-01T10:42:36.651Z,37.10
2023-04-01T10:45:37.226Z,39.00
2023-04-01T10:48:18.990Z,39.00
2023-04-01T10:51:06.006Z,39.80
2023-04-01T10:53:40.731Z,38.70
2023-04-01T10:56:27.361Z,37.70
2023-04-01T10:59:38.162Z,36.70
2023-04-01T11:02:43.123Z,36.40
2023-04-01T11:05:14.920Z,38.00
2023-04-01T11:08:12.303Z,36.40
2023-04-01T11:11:03.161Z,35.40
2023-04-01T11:13:36.535Z,35.20
2023-04-01T11:16:34.214Z,35.40
2023-04-01T11:19:11.071Z,34.40
2023-04-01T11:21:50.648Z,34.60
2023-04-01T11:24:34.284Z,34.80
2023-04-01T11:27:40.968Z,34.30
2023-04-01T11:30:24.473Z,36.80
2023-04-01T11:32:52.620Z,34.80
2023-04-01T11:35:22.838Z,34.40
2023-04-01T11:37:59.909Z,35.00
2023-04-01T11:40:56.564Z,33.80
2023-04-01T11:43:43.348Z,33.30
2023-04-01T11:46:52.404Z,33.40
2023-04-01T11:49:37.728Z,33.70
2023-04-01T11:52:35.183Z,33.50
2023-04-01T11:55:11.758Z,33.80
2023-04-01T11:57:46.109Z,35.30
2023-04-01T12:00:32.907Z,32.90
2023-04-01T12:03:19.929Z,33.10
2023-04-01T12:05:48.086Z,32.70
2023-04-01T12:08:31.167Z,32.50
2023-04-01T12:11:06.766Z,32.80
2023-04-01T12:13:44.533Z,31.30
2023-04-01T12:16:22.164Z,30.10
2023-04-01T12:18:54.665Z,33.60
2023-04-01T12:21:40.136Z,33.70
2023-04-01T12:24:27.660Z,35.20
2023-04-01T12:27:14.037Z,35.50
2023-04-01T12:30:01.253Z,37.70
2023-04-01T12:32:51.477Z,38.80
2023-04-01T12:35:38.131Z,39.80
2023-04-01T12:38:19.776Z,41.00
2023-04-01T12:40:49.909Z,43.40
2023-04-01T12:43:24.079Z,47.30
2023-04-01T12:46:02.155Z,49.80
2023-04-01T12:48:34.069Z,52.00
2023-04-01T12:51:37.672Z,52.70
2023-04-01T12:54:20.730Z,53.50
2023-04-01T12:57:00.381Z,53.20
2023-04-01T12:59:43.893Z,53.20
2023-04-01T13:02:22.586Z,53.80
2023-04-01T13:04:56.832Z,54.90
2023-04-01T13:07:32.204Z,54.90
2023-04-01T13:10:31.145Z,55.10
2023-04-01T13:13:22.096Z,55.50
2023-04-01T13:16:06.424Z,56.70
2023-04-01T13:18:47.840Z,57.50
2023-04-01T13:21:40.247Z,58.80
2023-04-01T13:24:27.066Z,60.30
2023-04-01T13:27:07.269Z,65.80
2023-04-01T13:29:53.430Z,70.10
2023-04-01T13:32:43.397Z,70.70
2023-04-01T13:35:30.648Z,69.40
2023-04-01T13:38:04.795Z,69.10
2023-04-01T13:40:46.723Z,68.70
2023-04-01T13:43:30.701Z,68.90
2023-04-01T13:46:04.574Z,68.80
2023-04-01T13:48:36.115Z,69.10
2023-04-01T13:51:23.016Z,69.40
2023-04-01T13:54:15.771Z,70.00
2023-04-01T13:56:49.415Z,70.20
2023-04-01T13:59:18.311Z,70.90
2023-04-01T14:02:05.235Z,70.80
2023-04-01T14:04:51.501Z,71.20
2023-04-01T14:07:31.829Z,71.50
2023-04-01T14:10:21.249Z,71.30
2023-04-01T14:12:52.208Z,71.10
2023-04-01T14:15:34.837Z,70.70
2023-04-01T14:18:13.216Z,69.80
2023-04-01T14:20:43.157Z,70.20
2023-04-01T14:23:17.379Z,70.20
2023-04-01T14:25:48.671Z,70.80
2023-04-01T14:28:37.630Z,70.00
2023-04-01T14:31:20.914Z,70.70
2023-04-01T14:34:15.301Z,71.20
2023-04-01T14:36:43.301Z,71.10
2023-04-01T14:39:30.004Z,71.90
2023-04-01T14:42:08.718Z,70.30
2023-04-01T14:44:53.215Z,68.80
2023-04-01T14:47:27.385Z,69.80
2023-04-01T14:50:04.433Z,69.60
2023-04-01T14:52:35.635Z,69.30
2023-04-01T14:55:19.067Z,67.90
2023-04-01T14:58:00.140Z,67.20
2023-04-01T15:00:29.337Z,62.70
2023-04-01T15:03:05.101Z,65.00
2023-04-01T15:05:35.782Z,63.40
2023-04-01T15:08:12.613Z,63.40
2023-04-01T15:10:47.254Z,64.20
2023-04-01T15:13:15.317Z,63.80
2023-04-01T15:15:46.527Z,63.70
2023-04-01T15:18:14.592Z,65.30
2023-04-01T15:20:45.010Z,64.80
2023-04-01T15:23:16.378Z,64.70
2023-04-01T15:26:03.105Z,64.40
2023-04-01T15:28:34.109Z,63.10
2023-04-01T15:31:06.370Z,63.10
2023-04-01T15:33:44.542Z,62.60
2023-04-01T15:36:25.017Z,62.40
2023-04-01T15:39:00.312Z,66.00
2023-04-01T15:41:38.551Z,67.00
2023-04-01T15:44:26.706Z,66.80
2023-04-01T15:46:56.562Z,67.20
2023-04-01T15:49:41.579Z,68.00
2023-04-01T15:52:15.888Z,68.10
2023-04-01T15:55:03.192Z,69.20
2023-04-01T15:57:31.843Z,70.50
2023-04-01T15:59:59.884Z,71.80
2023-04-01T16:02:34.658Z,72.00
2023-04-01T16:05:21.603Z,71.40
2023-04-01T16:07:52.838Z,71.70
2023-04-01T16:10:40.040Z,71.90
2023-04-01T16:13:32.304Z,71.50
2023-04-01T16:16:18.489Z,73.10
2023-04-01T16:18:51.845Z,72.80
2023-04-01T16:21:38.316Z,73.30
2023-04-01T16:24:12.531Z,73.40
2023-04-01T16:26:44.548Z,73.80
2023-04-01T16:29:12.580Z,74.60
2023-04-01T16:31:59.334Z,74.90
2023-04-01T16:34:33.499Z,75.20
2023-04-01T16:37:14.306Z,75.60
2023-04-01T16:40:03.792Z,75.70
2023-04-01T16:42:50.749Z,76.20
2023-04-01T16:45:34.517Z,76.40
2023-04-01T16:48:08.746Z,76.80
2023-04-01T16:50:55.452Z,77.10
2023-04-01T16:53:42.392Z,77.30
2023-04-01T16:56:18.313Z,77.20
2023-04-01T16:59:04.878Z,77.50
2023-04-01T17:01:41.944Z,77.70
2023-04-01T17:04:36.558Z,77.80
2023-04-01T17:07:23.593Z,77.70
2023-04-01T17:10:18.187Z,77.50
2023-04-01T17:12:56.008Z,78.20
2023-04-01T17:15:27.176Z,79.50
2023-04-01T17:17:57.524Z,78.30
2023-04-01T17:20:25.881Z,78.60
2023-04-01T17:23:00.486Z,78.70
2023-04-01T17:25:37.839Z,78.20
2023-04-01T17:28:05.738Z,77.30
2023-04-01T17:30:40.465Z,77.20
2023-04-01T17:33:17.266Z,77.30
2023-04-01T17:35:59.524Z,77.50
2023-04-01T17:38:30.667Z,77.60
2023-04-01T17:41:21.196Z,77.40
2023-04-01T17:44:04.481Z,77.40
2023-04-01T17:46:35.547Z,77.70
2023-04-01T17:49:10.359Z,78.10
2023-04-01T17:51:41.959Z,78.30
2023-04-01T17:54:13.441Z,78.70
2023-04-01T17:56:57.949Z,78.90
2023-04-01T17:59:40.702Z,78.90
2023-04-01T18:02:08.795Z,78.80
2023-04-01T18:04:46.275Z,79.20
2023-04-01T18:07:17.344Z,78.80
2023-04-01T18:09:54.559Z,79.10
2023-04-01T18:12:35.002Z,79.40
2023-04-01T18:15:23.289Z,79.60
2023-04-01T18:17:51.367Z,79.80
2023-04-01T18:20:34.916Z,80.10
2023-04-01T18:23:18.615Z,80.20
2023-04-01T18:25:49.647Z,80.40
2023-04-01T18:28:29.155Z,80.90
2023-04-01T18:31:03.404Z,81.00
2023-04-01T18:33:48.042Z,81.10
2023-04-01T18:36:34.942Z,81.20
2023-04-01T18:39:18.744Z,81.60
2023-04-01T18:42:06.830Z,81.70
2023-04-01T18:44:50.394Z,82.20
2023-04-01T18:47:18.352Z,82.60
2023-04-01T18:50:00.926Z,83.00
2023-04-01T18:52:35.501Z,83.30
2023-04-01T18:55:03.602Z,83.70
2023-04-01T18:57:41.085Z,83.80
2023-04-01T19:00:17.449Z,84.00
2023-04-01T19:02:59.668Z,84.40
2023-04-01T19:05:33.929Z,84.30
2023-04-01T19:08:14.903Z,84.70
2023-04-01T19:10:59.087Z,84.40
2023-04-01T19:13:38.873Z,84.10
2023-04-01T19:16:19.251Z,84.40
2023-04-01T19:18:48.841Z,84.70
2023-04-01T19:21:19.993Z,85.50
2023-04-01T19:24:06.756Z,85.00
2023-04-01T19:26:34.887Z,84.70
2023-04-01T19:29:06.062Z,84.70
2023-04-01T19:31:42.559Z,84.90
2023-04-01T19:34:10.757Z,85.60
2023-04-01T19:36:39.328Z,84.90
2023-04-01T19:39:28.846Z,85.00
2023-04-01T19:42:06.580Z,84.80
2023-04-01T19:44:43.276Z,84.90
2023-04-01T19:47:22.213Z,85.20
2023-04-01T19:50:01.373Z,85.20
2023-04-01T19:52:34.488Z,85.60
2023-04-01T19:55:17.262Z,85.60
2023-04-01T19:57:49.390Z,85.40
2023-04-01T20:00:18.204Z,85.70
2023-04-01T20:02:46.687Z,85.90
2023-04-01T20:05:33.762Z,85.70
2023-04-01T20:08:05.108Z,86.00
2023-04-01T20:10:33.048Z,86.20
2023-04-01T20:13:01.163Z,87.00
2023-04-01T20:15:37.183Z,86.70
2023-04-01T20:18:23.011Z,87.10
2023-04-01T20:20:56.593Z,87.20
2023-04-01T20:23:28.704Z,87.00
2023-04-01T20:26:23.293Z,87.00
2023-04-01T20:29:10.005Z,87.30
2023-04-01T20:31:41.302Z,86.60
2023-04-01T20:34:09.543Z,86.90
2023-04-01T20:36:52.884Z,87.40
2023-04-01T20:39:21.086Z,87.70
2023-04-01T20:42:04.438Z,88.20
2023-04-01T20:44:53.843Z,88.50
2023-04-01T20:47:33.822Z,88.30
2023-04-01T20:50:20.514Z,88.00
2023-04-01T20:52:57.896Z,88.30
2023-04-01T20:55:28.999Z,87.90
2023-04-01T20:58:10.113Z,87.90
2023-04-01T21:00:54.031Z,87.70
2023-04-01T21:03:31.223Z,88.00
2023-04-01T21:06:05.265Z,88.10
2023-04-01T21:08:49.436Z,88.00
2023-04-01T21:11:33.630Z,88.30
2023-04-01T21:14:04.338Z,88.10
2023-04-01T21:16:37.567Z,88.20
2023-04-01T21:19:08.638Z,88.50
2023-04-01T21:21:58.842Z,88.70
2023-04-01T21:24:37.050Z,88.50
2023-04-01T21:27:24.066Z,88.50
2023-04-01T21:30:02.353Z,88.90
2023-04-01T21:32:42.638Z,89.40
2023-04-01T21:35:28.930Z,89.90
2023-04-01T21:38:15.858Z,90.00
2023-04-01T21:40:55.485Z,90.10
2023-04-01T21:43:36.571Z,90.10
2023-04-01T21:46:07.610Z,90.40
2023-04-01T21:48:54.920Z,90.20
2023-04-01T21:51:41.793Z,90.20
2023-04-01T21:54:20.906Z,90.20
2023-04-01T21:57:07.718Z,90.40
2023-04-01T21:59:54.625Z,90.20
2023-04-01T22:02:22.877Z,90.10
2023-04-01T22:05:31.720Z,90.20
2023-04-01T22:08:17.977Z,90.10
2023-04-01T22:10:54.994Z,90.10
2023-04-01T22:13:32.245Z,89.80
2023-04-01T22:16:08.833Z,90.10
2023-04-01T22:18:57.062Z,90.10
2023-04-01T22:21:39.870Z,90.10
2023-04-01T22:24:16.269Z,90.00
2023-04-01T22:26:44.208Z,90.00
2023-04-01T22:29:28.014Z,89.80
2023-04-01T22:32:00.804Z,89.70
2023-04-01T22:34:51.099Z,90.00
2023-04-01T22:37:22.185Z,89.80
2023-04-01T22:40:02.616Z,90.00
2023-04-01T22:42:30.710Z,90.20
2023-04-01T22:44:58.878Z,90.10
2023-04-01T22:47:40.674Z,90.20
2023-04-01T22:50:35.616Z,90.10
2023-04-01T22:53:24.001Z,90.20
2023-04-01T22:55:54.032Z,90.20
2023-04-01T22:58:27.461Z,90.50
2023-04-01T23:01:01.201Z,90.80
2023-04-01T23:03:29.159Z,90.70
2023-04-01T23:05:58.632Z,90.70
2023-04-01T23:08:44.763Z,90.90
2023-04-01T23:11:19.448Z,90.90
2023-04-01T23:13:54.021Z,90.80
2023-04-01T23:16:25.040Z,91.00
2023-04-01T23:18:53.201Z,91.30
2023-04-01T23:21:36.970Z,91.40
2023-04-01T23:24:04.906Z,91.50
2023-04-01T23:26:51.468Z,91.50
2023-04-01T23:29:20.803Z,91.60
2023-04-01T23:31:49.986Z,91.50
2023-04-01T23:34:29.095Z,91.40
2023-04-01T23:37:02.576Z,91.40
2023-04-01T23:39:35.901Z,91.00
2023-04-01T23:42:22.512Z,91.20
2023-04-01T23:44:51.875Z,91.40
2023-04-01T23:47:32.889Z,91.40
2023-04-01T23:50:21.307Z,91.30
2023-04-01T23:53:04.498Z,91.30
2023-04-01T23:55:34.007Z,91.10
2023-04-01T23:58:16.765Z,91.50
